Terminal Aerodrome Forecast
Issued by NWS

Home | Current Version | Previous Version | Text Only | Print | Product List | Glossary On
Versions: 1 2 3 4 5 6 7 8 9 10 11 12 13 14 15 16 17 18 19 20 21
000
FTUS44 KCRP 211420 AAB
TAFALI
TAF AMD
KALI 211420Z 2114/2212 19004KT 2SM BR OVC003
      TEMPO 2114/2115 3/4SM BR BKN009
     FM211530 24007KT P6SM FEW010
     FM211700 29012KT P6SM SKC
     FM212200 22008KT P6SM FEW120
     FM220700 29016G22KT P6SM SKC=

USA.gov is the U.S. government's official web portal to all federal, state and local government web resources and services.